sensor_id;sensor_type;location;lat;lon;timestamp;temperature;humidity
36594;DHT22;22603;47.900;8.146;2023-09-07T00:01:51;12.70;99.90
36594;DHT22;22603;47.900;8.146;2023-09-07T00:04:38;12.70;99.90
36594;DHT22;22603;47.900;8.146;2023-09-07T00:07:27;12.60;99.90
36594;DHT22;22603;47.900;8.146;2023-09-07T00:10:13;12.60;99.90
36594;DHT22;22603;47.900;8.146;2023-09-07T00:13:03;12.50;99.90
36594;DHT22;22603;47.900;8.146;2023-09-07T00:15:50;12.50;99.90
36594;DHT22;22603;47.900;8.146;2023-09-07T00:18:37;12.50;99.90
36594;DHT22;22603;47.900;8.146;2023-09-07T00:21:23;12.40;99.90
36594;DHT22;22603;47.900;8.146;2023-09-07T00:24:12;12.40;99.90
36594;DHT22;22603;47.900;8.146;2023-09-07T00:27:01;12.30;99.90
36594;DHT22;22603;47.900;8.146;2023-09-07T00:29:51;12.30;99.90
36594;DHT22;22603;47.900;8.146;2023-09-07T00:32:38;12.20;99.90
36594;DHT22;22603;47.900;8.146;2023-09-07T00:35:25;12.20;99.90
36594;DHT22;22603;47.900;8.146;2023-09-07T00:38:12;12.20;99.90
36594;DHT22;22603;47.900;8.146;2023-09-07T00:41:00;12.10;99.90
36594;DHT22;22603;47.900;8.146;2023-09-07T00:43:47;12.00;99.90
36594;DHT22;22603;47.900;8.146;2023-09-07T00:46:33;12.10;99.90
36594;DHT22;22603;47.900;8.146;2023-09-07T00:49:20;12.00;99.90
36594;DHT22;22603;47.900;8.146;2023-09-07T00:52:08;12.00;99.90
36594;DHT22;22603;47.900;8.146;2023-09-07T00:54:55;11.90;99.90
36594;DHT22;22603;47.900;8.146;2023-09-07T00:57:43;11.90;99.90
36594;DHT22;22603;47.900;8.146;2023-09-07T01:00:30;11.90;99.90
36594;DHT22;22603;47.900;8.146;2023-09-07T01:03:17;11.80;99.90
36594;DHT22;22603;47.900;8.146;2023-09-07T01:06:07;11.80;99.90
36594;DHT22;22603;47.900;8.146;2023-09-07T01:09:05;11.80;99.90
36594;DHT22;22603;47.900;8.146;2023-09-07T01:11:53;11.80;99.90
36594;DHT22;22603;47.900;8.146;2023-09-07T01:14:41;11.80;99.90
36594;DHT22;22603;47.900;8.146;2023-09-07T01:17:28;11.70;99.90
36594;DHT22;22603;47.900;8.146;2023-09-07T01:20:16;11.70;99.90
36594;DHT22;22603;47.900;8.146;2023-09-07T01:23:05;11.70;99.90
36594;DHT22;22603;47.900;8.146;2023-09-07T01:25:53;11.60;99.90
36594;DHT22;22603;47.900;8.146;2023-09-07T01:28:42;11.60;99.90
36594;DHT22;22603;47.900;8.146;2023-09-07T01:31:28;11.50;99.90
36594;DHT22;22603;47.900;8.146;2023-09-07T01:34:15;11.50;99.90
36594;DHT22;22603;47.900;8.146;2023-09-07T01:37:03;11.50;99.90
36594;DHT22;22603;47.900;8.146;2023-09-07T01:39:51;11.40;99.90
36594;DHT22;22603;47.900;8.146;2023-09-07T01:42:38;11.40;99.90
36594;DHT22;22603;47.900;8.146;2023-09-07T01:45:24;11.40;99.90
36594;DHT22;22603;47.900;8.146;2023-09-07T01:48:13;11.40;99.90
36594;DHT22;22603;47.900;8.146;2023-09-07T01:51:00;11.30;99.90
36594;DHT22;22603;47.900;8.146;2023-09-07T01:53:50;11.30;99.90
36594;DHT22;22603;47.900;8.146;2023-09-07T01:56:39;11.20;99.90
36594;DHT22;22603;47.900;8.146;2023-09-07T01:59:27;11.20;99.90
36594;DHT22;22603;47.900;8.146;2023-09-07T02:02:13;11.10;99.90
36594;DHT22;22603;47.900;8.146;2023-09-07T02:05:00;11.10;99.90
36594;DHT22;22603;47.900;8.146;2023-09-07T02:07:47;11.10;99.90
36594;DHT22;22603;47.900;8.146;2023-09-07T02:10:35;11.00;99.90
36594;DHT22;22603;47.900;8.146;2023-09-07T02:13:23;11.00;99.90
36594;DHT22;22603;47.900;8.146;2023-09-07T02:16:10;11.00;99.90
36594;DHT22;22603;47.900;8.146;2023-09-07T02:19:01;11.00;99.90
36594;DHT22;22603;47.900;8.146;2023-09-07T02:21:49;10.90;99.90
36594;DHT22;22603;47.900;8.146;2023-09-07T02:24:36;11.00;99.90
36594;DHT22;22603;47.900;8.146;2023-09-07T02:27:23;10.90;99.90
36594;DHT22;22603;47.900;8.146;2023-09-07T02:30:12;10.90;99.90
36594;DHT22;22603;47.900;8.146;2023-09-07T02:32:59;10.80;99.90
36594;DHT22;22603;47.900;8.146;2023-09-07T02:35:47;10.80;99.90
36594;DHT22;22603;47.900;8.146;2023-09-07T02:38:34;10.80;99.90
36594;DHT22;22603;47.900;8.146;2023-09-07T02:41:21;10.70;99.90
36594;DHT22;22603;47.900;8.146;2023-09-07T02:44:07;10.70;99.90
36594;DHT22;22603;47.900;8.146;2023-09-07T02:46:55;10.70;99.90
36594;DHT22;22603;47.900;8.146;2023-09-07T02:49:42;10.70;99.90
36594;DHT22;22603;47.900;8.146;2023-09-07T02:52:29;10.60;99.90
36594;DHT22;22603;47.900;8.146;2023-09-07T02:55:16;10.60;99.90
36594;DHT22;22603;47.900;8.146;2023-09-07T02:58:03;10.60;99.90
36594;DHT22;22603;47.900;8.146;2023-09-07T03:00:50;10.60;99.90
36594;DHT22;22603;47.900;8.146;2023-09-07T03:03:38;10.50;99.90
36594;DHT22;22603;47.900;8.146;2023-09-07T03:06:27;10.50;99.90
36594;DHT22;22603;47.900;8.146;2023-09-07T03:09:13;10.40;99.90
36594;DHT22;22603;47.900;8.146;2023-09-07T03:12:00;10.40;99.90
36594;DHT22;22603;47.900;8.146;2023-09-07T03:14:47;10.40;99.90
36594;DHT22;22603;47.900;8.146;2023-09-07T03:17:36;10.40;99.90
36594;DHT22;22603;47.900;8.146;2023-09-07T03:20:24;10.40;99.90
36594;DHT22;22603;47.900;8.146;2023-09-07T03:23:11;10.30;99.90
36594;DHT22;22603;47.900;8.146;2023-09-07T03:25:58;10.30;99.90
36594;DHT22;22603;47.900;8.146;2023-09-07T03:28:45;10.30;99.90
36594;DHT22;22603;47.900;8.146;2023-09-07T03:31:32;10.20;99.90
36594;DHT22;22603;47.900;8.146;2023-09-07T03:34:21;10.20;99.90
36594;DHT22;22603;47.900;8.146;2023-09-07T03:37:09;10.10;99.90
36594;DHT22;22603;47.900;8.146;2023-09-07T03:39:57;10.10;99.90
36594;DHT22;22603;47.900;8.146;2023-09-07T03:42:44;10.20;99.90
36594;DHT22;22603;47.900;8.146;2023-09-07T03:45:31;10.10;99.90
36594;DHT22;22603;47.900;8.146;2023-09-07T03:48:18;10.10;99.90
36594;DHT22;22603;47.900;8.146;2023-09-07T03:51:06;10.10;99.90
36594;DHT22;22603;47.900;8.146;2023-09-07T03:53:54;10.10;99.90
36594;DHT22;22603;47.900;8.146;2023-09-07T03:56:41;10.10;99.90
36594;DHT22;22603;47.900;8.146;2023-09-07T03:59:28;10.00;99.90
36594;DHT22;22603;47.900;8.146;2023-09-07T04:02:14;10.00;99.90
36594;DHT22;22603;47.900;8.146;2023-09-07T04:05:02;9.90;99.90
36594;DHT22;22603;47.900;8.146;2023-09-07T04:07:50;9.80;99.90
36594;DHT22;22603;47.900;8.146;2023-09-07T04:10:39;9.90;99.90
36594;DHT22;22603;47.900;8.146;2023-09-07T04:13:25;9.90;99.90
36594;DHT22;22603;47.900;8.146;2023-09-07T04:16:12;9.90;99.90
36594;DHT22;22603;47.900;8.146;2023-09-07T04:18:58;9.80;99.90
36594;DHT22;22603;47.900;8.146;2023-09-07T04:21:45;9.80;99.90
36594;DHT22;22603;47.900;8.146;2023-09-07T04:24:32;9.80;99.90
36594;DHT22;22603;47.900;8.146;2023-09-07T04:27:20;9.80;99.90
36594;DHT22;22603;47.900;8.146;2023-09-07T04:30:08;9.80;99.90
36594;DHT22;22603;47.900;8.146;2023-09-07T04:32:55;9.80;99.90
36594;DHT22;22603;47.900;8.146;2023-09-07T04:35:41;9.80;99.90
36594;DHT22;22603;47.900;8.146;2023-09-07T04:38:28;9.80;99.90
36594;DHT22;22603;47.900;8.146;2023-09-07T04:41:15;9.80;99.90
36594;DHT22;22603;47.900;8.146;2023-09-07T04:44:03;9.70;99.90
36594;DHT22;22603;47.900;8.146;2023-09-07T04:46:50;9.80;99.90
36594;DHT22;22603;47.900;8.146;2023-09-07T04:49:38;9.80;99.90
36594;DHT22;22603;47.900;8.146;2023-09-07T04:52:25;9.80;99.90
36594;DHT22;22603;47.900;8.146;2023-09-07T04:55:12;9.70;99.90
36594;DHT22;22603;47.900;8.146;2023-09-07T04:57:59;9.70;99.90
36594;DHT22;22603;47.900;8.146;2023-09-07T05:00:47;9.70;99.90
36594;DHT22;22603;47.900;8.146;2023-09-07T05:03:34;9.70;99.90
36594;DHT22;22603;47.900;8.146;2023-09-07T05:06:23;9.60;99.90
36594;DHT22;22603;47.900;8.146;2023-09-07T05:09:12;9.60;99.90
36594;DHT22;22603;47.900;8.146;2023-09-07T05:11:58;9.60;99.90
36594;DHT22;22603;47.900;8.146;2023-09-07T05:14:46;9.60;99.90
36594;DHT22;22603;47.900;8.146;2023-09-07T05:17:34;9.70;99.90
36594;DHT22;22603;47.900;8.146;2023-09-07T05:20:21;9.70;99.90
36594;DHT22;22603;47.900;8.146;2023-09-07T05:23:08;9.70;99.90
36594;DHT22;22603;47.900;8.146;2023-09-07T05:25:55;9.70;99.90
36594;DHT22;22603;47.900;8.146;2023-09-07T05:28:41;9.80;99.90
36594;DHT22;22603;47.900;8.146;2023-09-07T05:31:28;9.80;99.90
36594;DHT22;22603;47.900;8.146;2023-09-07T05:34:17;9.90;99.90
36594;DHT22;22603;47.900;8.146;2023-09-07T05:37:04;9.90;99.90
36594;DHT22;22603;47.900;8.146;2023-09-07T05:39:51;9.90;99.90
36594;DHT22;22603;47.900;8.146;2023-09-07T05:42:38;9.90;99.90
36594;DHT22;22603;47.900;8.146;2023-09-07T05:45:25;10.00;99.90
36594;DHT22;22603;47.900;8.146;2023-09-07T05:48:14;10.00;99.90
36594;DHT22;22603;47.900;8.146;2023-09-07T05:51:04;10.10;99.90
36594;DHT22;22603;47.900;8.146;2023-09-07T05:53:51;10.20;99.90
36594;DHT22;22603;47.900;8.146;2023-09-07T05:56:38;10.30;99.90
36594;DHT22;22603;47.900;8.146;2023-09-07T05:59:25;10.40;99.90
36594;DHT22;22603;47.900;8.146;2023-09-07T06:02:11;10.50;99.90
36594;DHT22;22603;47.900;8.146;2023-09-07T06:04:58;10.60;99.90
36594;DHT22;22603;47.900;8.146;2023-09-07T06:07:46;10.80;99.90
36594;DHT22;22603;47.900;8.146;2023-09-07T06:10:33;10.90;99.90
36594;DHT22;22603;47.900;8.146;2023-09-07T06:13:20;11.20;99.90
36594;DHT22;22603;47.900;8.146;2023-09-07T06:16:07;11.40;99.90
36594;DHT22;22603;47.900;8.146;2023-09-07T06:18:54;11.50;99.90
36594;DHT22;22603;47.900;8.146;2023-09-07T06:21:41;11.70;99.90
36594;DHT22;22603;47.900;8.146;2023-09-07T06:24:29;11.90;99.90
36594;DHT22;22603;47.900;8.146;2023-09-07T06:27:15;12.00;99.90
36594;DHT22;22603;47.900;8.146;2023-09-07T06:30:04;12.20;99.90
36594;DHT22;22603;47.900;8.146;2023-09-07T06:32:50;12.30;99.90
36594;DHT22;22603;47.900;8.146;2023-09-07T06:35:38;12.50;99.90
36594;DHT22;22603;47.900;8.146;2023-09-07T06:38:25;12.70;99.90
36594;DHT22;22603;47.900;8.146;2023-09-07T06:41:13;12.90;99.90
36594;DHT22;22603;47.900;8.146;2023-09-07T06:44:01;13.20;99.90
36594;DHT22;22603;47.900;8.146;2023-09-07T06:46:47;13.90;99.90
36594;DHT22;22603;47.900;8.146;2023-09-07T06:49:34;14.90;99.90
36594;DHT22;22603;47.900;8.146;2023-09-07T06:52:22;16.10;99.90
36594;DHT22;22603;47.900;8.146;2023-09-07T06:55:09;16.60;99.90
36594;DHT22;22603;47.900;8.146;2023-09-07T06:57:57;17.10;99.90
36594;DHT22;22603;47.900;8.146;2023-09-07T07:00:45;17.60;99.90
36594;DHT22;22603;47.900;8.146;2023-09-07T07:03:33;18.10;99.90
36594;DHT22;22603;47.900;8.146;2023-09-07T07:06:20;18.80;99.90
36594;DHT22;22603;47.900;8.146;2023-09-07T07:09:06;18.50;99.90
36594;DHT22;22603;47.900;8.146;2023-09-07T07:11:54;18.30;99.90
36594;DHT22;22603;47.900;8.146;2023-09-07T07:14:42;18.40;99.90
36594;DHT22;22603;47.900;8.146;2023-09-07T07:17:29;18.50;99.90
36594;DHT22;22603;47.900;8.146;2023-09-07T07:20:17;19.10;99.90
36594;DHT22;22603;47.900;8.146;2023-09-07T07:26:40;20.20;99.90
36594;DHT22;22603;47.900;8.146;2023-09-07T07:29:27;20.60;99.90
36594;DHT22;22603;47.900;8.146;2023-09-07T07:32:17;21.10;99.90
36594;DHT22;22603;47.900;8.146;2023-09-07T07:35:05;21.40;99.90
36594;DHT22;22603;47.900;8.146;2023-09-07T07:37:52;21.40;99.90
36594;DHT22;22603;47.900;8.146;2023-09-07T07:40:39;21.40;99.90
36594;DHT22;22603;47.900;8.146;2023-09-07T07:43:29;21.40;99.90
36594;DHT22;22603;47.900;8.146;2023-09-07T07:46:17;21.70;99.90
36594;DHT22;22603;47.900;8.146;2023-09-07T07:49:05;22.00;99.90
36594;DHT22;22603;47.900;8.146;2023-09-07T07:51:51;22.40;99.90
36594;DHT22;22603;47.900;8.146;2023-09-07T07:54:40;22.60;99.90
36594;DHT22;22603;47.900;8.146;2023-09-07T07:57:27;22.90;99.90
36594;DHT22;22603;47.900;8.146;2023-09-07T08:00:15;23.00;99.90
36594;DHT22;22603;47.900;8.146;2023-09-07T08:03:03;22.90;99.90
36594;DHT22;22603;47.900;8.146;2023-09-07T08:05:51;22.90;99.90
36594;DHT22;22603;47.900;8.146;2023-09-07T08:08:39;23.20;99.90
36594;DHT22;22603;47.900;8.146;2023-09-07T08:11:26;23.50;99.90
36594;DHT22;22603;47.900;8.146;2023-09-07T08:14:12;23.60;99.90
36594;DHT22;22603;47.900;8.146;2023-09-07T08:17:00;24.00;99.90
36594;DHT22;22603;47.900;8.146;2023-09-07T08:19:48;24.30;99.90
36594;DHT22;22603;47.900;8.146;2023-09-07T08:22:36;24.50;99.90
36594;DHT22;22603;47.900;8.146;2023-09-07T08:25:26;24.70;99.90
36594;DHT22;22603;47.900;8.146;2023-09-07T08:28:13;24.60;99.90
36594;DHT22;22603;47.900;8.146;2023-09-07T08:31:01;24.40;99.90
36594;DHT22;22603;47.900;8.146;2023-09-07T08:33:51;24.70;99.90
36594;DHT22;22603;47.900;8.146;2023-09-07T08:36:40;24.70;99.90
36594;DHT22;22603;47.900;8.146;2023-09-07T08:39:27;24.90;99.90
36594;DHT22;22603;47.900;8.146;2023-09-07T08:42:15;24.90;99.90
36594;DHT22;22603;47.900;8.146;2023-09-07T08:45:03;25.20;99.90
36594;DHT22;22603;47.900;8.146;2023-09-07T08:47:53;25.80;99.90
36594;DHT22;22603;47.900;8.146;2023-09-07T08:50:42;26.50;99.90
36594;DHT22;22603;47.900;8.146;2023-09-07T08:53:36;26.90;99.90
36594;DHT22;22603;47.900;8.146;2023-09-07T08:56:24;26.60;99.90
36594;DHT22;22603;47.900;8.146;2023-09-07T08:59:11;26.90;99.90
36594;DHT22;22603;47.900;8.146;2023-09-07T09:01:57;27.10;99.90
36594;DHT22;22603;47.900;8.146;2023-09-07T09:04:45;27.50;99.90
36594;DHT22;22603;47.900;8.146;2023-09-07T09:07:33;28.10;99.90
36594;DHT22;22603;47.900;8.146;2023-09-07T09:10:20;27.90;99.90
36594;DHT22;22603;47.900;8.146;2023-09-07T09:13:06;28.00;99.90
36594;DHT22;22603;47.900;8.146;2023-09-07T09:15:53;27.80;99.90
36594;DHT22;22603;47.900;8.146;2023-09-07T09:18:47;27.90;99.90
36594;DHT22;22603;47.900;8.146;2023-09-07T09:21:34;28.00;99.90
36594;DHT22;22603;47.900;8.146;2023-09-07T09:24:23;27.90;99.90
36594;DHT22;22603;47.900;8.146;2023-09-07T09:27:10;27.60;99.90
36594;DHT22;22603;47.900;8.146;2023-09-07T09:29:57;28.00;99.90
36594;DHT22;22603;47.900;8.146;2023-09-07T09:32:44;28.20;99.90
36594;DHT22;22603;47.900;8.146;2023-09-07T09:35:30;27.90;99.90
36594;DHT22;22603;47.900;8.146;2023-09-07T09:38:17;28.00;99.90
36594;DHT22;22603;47.900;8.146;2023-09-07T09:41:06;28.30;99.90
36594;DHT22;22603;47.900;8.146;2023-09-07T09:43:56;28.50;99.90
36594;DHT22;22603;47.900;8.146;2023-09-07T09:46:43;29.20;99.90
36594;DHT22;22603;47.900;8.146;2023-09-07T09:49:32;29.70;99.90
36594;DHT22;22603;47.900;8.146;2023-09-07T09:52:20;30.30;99.90
36594;DHT22;22603;47.900;8.146;2023-09-07T09:55:08;30.30;99.90
36594;DHT22;22603;47.900;8.146;2023-09-07T09:58:00;30.50;99.90
36594;DHT22;22603;47.900;8.146;2023-09-07T10:00:49;30.80;99.90
36594;DHT22;22603;47.900;8.146;2023-09-07T10:03:39;31.30;99.90
36594;DHT22;22603;47.900;8.146;2023-09-07T10:06:33;31.60;99.90
36594;DHT22;22603;47.900;8.146;2023-09-07T10:09:21;32.60;99.90
36594;DHT22;22603;47.900;8.146;2023-09-07T10:12:11;32.60;99.90
36594;DHT22;22603;47.900;8.146;2023-09-07T10:15:04;32.70;99.90
36594;DHT22;22603;47.900;8.146;2023-09-07T10:18:03;32.30;99.90
36594;DHT22;22603;47.900;8.146;2023-09-07T10:20:51;32.70;99.90
36594;DHT22;22603;47.900;8.146;2023-09-07T10:23:41;33.30;99.90
36594;DHT22;22603;47.900;8.146;2023-09-07T10:26:28;32.90;99.90
36594;DHT22;22603;47.900;8.146;2023-09-07T10:29:14;33.60;99.90
36594;DHT22;22603;47.900;8.146;2023-09-07T10:32:07;33.20;99.90
36594;DHT22;22603;47.900;8.146;2023-09-07T10:34:54;33.40;99.90
36594;DHT22;22603;47.900;8.146;2023-09-07T10:37:41;33.70;99.90
36594;DHT22;22603;47.900;8.146;2023-09-07T10:40:29;34.50;99.90
36594;DHT22;22603;47.900;8.146;2023-09-07T10:43:16;35.40;99.90
36594;DHT22;22603;47.900;8.146;2023-09-07T10:46:03;36.10;99.90
36594;DHT22;22603;47.900;8.146;2023-09-07T10:48:53;36.10;99.90
36594;DHT22;22603;47.900;8.146;2023-09-07T10:51:44;35.90;99.90
36594;DHT22;22603;47.900;8.146;2023-09-07T10:54:32;36.30;99.90
36594;DHT22;22603;47.900;8.146;2023-09-07T10:57:18;36.00;99.90
36594;DHT22;22603;47.900;8.146;2023-09-07T11:00:06;36.10;99.90
36594;DHT22;22603;47.900;8.146;2023-09-07T11:02:56;36.40;99.90
36594;DHT22;22603;47.900;8.146;2023-09-07T11:05:44;36.40;99.90
36594;DHT22;22603;47.900;8.146;2023-09-07T11:08:31;35.90;99.90
36594;DHT22;22603;47.900;8.146;2023-09-07T11:11:18;35.80;99.90
36594;DHT22;22603;47.900;8.146;2023-09-07T11:14:05;36.20;99.90
36594;DHT22;22603;47.900;8.146;2023-09-07T11:16:55;36.10;99.90
36594;DHT22;22603;47.900;8.146;2023-09-07T11:19:44;36.10;99.90
36594;DHT22;22603;47.900;8.146;2023-09-07T11:22:32;36.10;99.90
36594;DHT22;22603;47.900;8.146;2023-09-07T11:25:20;36.00;99.90
36594;DHT22;22603;47.900;8.146;2023-09-07T11:28:08;35.80;99.90
36594;DHT22;22603;47.900;8.146;2023-09-07T11:30:55;35.80;99.90
36594;DHT22;22603;47.900;8.146;2023-09-07T11:33:42;36.00;99.90
36594;DHT22;22603;47.900;8.146;2023-09-07T11:36:29;36.00;99.90
36594;DHT22;22603;47.900;8.146;2023-09-07T11:39:16;35.70;99.90
36594;DHT22;22603;47.900;8.146;2023-09-07T11:42:04;35.80;99.90
36594;DHT22;22603;47.900;8.146;2023-09-07T11:44:51;35.90;99.90
36594;DHT22;22603;47.900;8.146;2023-09-07T11:47:37;35.80;99.90
36594;DHT22;22603;47.900;8.146;2023-09-07T11:50:24;35.30;99.90
36594;DHT22;22603;47.900;8.146;2023-09-07T11:53:11;35.60;99.90
36594;DHT22;22603;47.900;8.146;2023-09-07T11:56:00;35.70;99.90
36594;DHT22;22603;47.900;8.146;2023-09-07T11:58:47;35.50;99.90
36594;DHT22;22603;47.900;8.146;2023-09-07T12:01:34;35.50;99.90
36594;DHT22;22603;47.900;8.146;2023-09-07T12:04:21;35.10;99.90
36594;DHT22;22603;47.900;8.146;2023-09-07T12:07:08;35.20;99.90
36594;DHT22;22603;47.900;8.146;2023-09-07T12:09:56;35.10;99.90
36594;DHT22;22603;47.900;8.146;2023-09-07T12:12:44;35.10;99.90
36594;DHT22;22603;47.900;8.146;2023-09-07T12:15:31;35.30;99.90
36594;DHT22;22603;47.900;8.146;2023-09-07T12:18:18;35.40;99.90
36594;DHT22;22603;47.900;8.146;2023-09-07T12:21:05;35.30;99.90
36594;DHT22;22603;47.900;8.146;2023-09-07T12:23:53;35.40;99.90
36594;DHT22;22603;47.900;8.146;2023-09-07T12:26:40;35.40;99.90
36594;DHT22;22603;47.900;8.146;2023-09-07T12:29:28;34.70;99.90
36594;DHT22;22603;47.900;8.146;2023-09-07T12:32:16;34.50;99.90
36594;DHT22;22603;47.900;8.146;2023-09-07T12:35:03;34.30;99.90
36594;DHT22;22603;47.900;8.146;2023-09-07T12:37:53;34.40;99.90
36594;DHT22;22603;47.900;8.146;2023-09-07T12:40:40;34.30;99.90
36594;DHT22;22603;47.900;8.146;2023-09-07T12:43:27;34.40;99.90
36594;DHT22;22603;47.900;8.146;2023-09-07T12:46:15;34.10;99.90
36594;DHT22;22603;47.900;8.146;2023-09-07T12:49:02;34.00;99.90
36594;DHT22;22603;47.900;8.146;2023-09-07T12:51:49;34.10;99.90
36594;DHT22;22603;47.900;8.146;2023-09-07T12:54:36;33.90;99.90
36594;DHT22;22603;47.900;8.146;2023-09-07T12:57:23;33.60;99.90
36594;DHT22;22603;47.900;8.146;2023-09-07T13:00:11;33.70;99.90
36594;DHT22;22603;47.900;8.146;2023-09-07T13:03:00;33.50;99.90
36594;DHT22;22603;47.900;8.146;2023-09-07T13:05:48;33.00;99.90
36594;DHT22;22603;47.900;8.146;2023-09-07T13:08:35;33.10;99.90
36594;DHT22;22603;47.900;8.146;2023-09-07T13:11:21;33.20;99.90
36594;DHT22;22603;47.900;8.146;2023-09-07T13:14:08;32.80;99.90
36594;DHT22;22603;47.900;8.146;2023-09-07T13:16:56;32.60;99.90
36594;DHT22;22603;47.900;8.146;2023-09-07T13:19:44;32.50;99.90
36594;DHT22;22603;47.900;8.146;2023-09-07T13:22:33;32.30;99.90
36594;DHT22;22603;47.900;8.146;2023-09-07T13:25:20;32.30;99.90
36594;DHT22;22603;47.900;8.146;2023-09-07T13:28:07;32.30;99.90
36594;DHT22;22603;47.900;8.146;2023-09-07T13:30:54;32.20;99.90
36594;DHT22;22603;47.900;8.146;2023-09-07T13:33:41;32.10;99.90
36594;DHT22;22603;47.900;8.146;2023-09-07T13:36:29;32.00;99.90
36594;DHT22;22603;47.900;8.146;2023-09-07T13:39:16;31.80;99.90
36594;DHT22;22603;47.900;8.146;2023-09-07T13:42:04;31.80;99.90
36594;DHT22;22603;47.900;8.146;2023-09-07T13:44:50;31.60;99.90
36594;DHT22;22603;47.900;8.146;2023-09-07T13:47:38;31.60;99.90
36594;DHT22;22603;47.900;8.146;2023-09-07T13:50:25;31.40;99.90
36594;DHT22;22603;47.900;8.146;2023-09-07T13:53:15;31.30;99.90
36594;DHT22;22603;47.900;8.146;2023-09-07T13:56:02;31.20;99.90
36594;DHT22;22603;47.900;8.146;2023-09-07T13:58:49;31.10;99.90
36594;DHT22;22603;47.900;8.146;2023-09-07T14:01:36;31.00;99.90
36594;DHT22;22603;47.900;8.146;2023-09-07T14:04:23;30.80;99.90
36594;DHT22;22603;47.900;8.146;2023-09-07T14:07:10;30.70;99.90
36594;DHT22;22603;47.900;8.146;2023-09-07T14:09:57;30.60;99.90
36594;DHT22;22603;47.900;8.146;2023-09-07T14:12:44;30.70;99.90
36594;DHT22;22603;47.900;8.146;2023-09-07T14:15:34;30.60;99.90
36594;DHT22;22603;47.900;8.146;2023-09-07T14:18:20;30.80;99.90
36594;DHT22;22603;47.900;8.146;2023-09-07T14:21:07;30.70;99.90
36594;DHT22;22603;47.900;8.146;2023-09-07T14:23:54;30.80;99.90
36594;DHT22;22603;47.900;8.146;2023-09-07T14:26:42;30.60;99.90
36594;DHT22;22603;47.900;8.146;2023-09-07T14:29:29;30.60;99.90
36594;DHT22;22603;47.900;8.146;2023-09-07T14:32:16;30.40;99.90
36594;DHT22;22603;47.900;8.146;2023-09-07T14:35:03;30.50;99.90
36594;DHT22;22603;47.900;8.146;2023-09-07T14:37:49;30.40;99.90
36594;DHT22;22603;47.900;8.146;2023-09-07T14:40:37;30.50;99.90
36594;DHT22;22603;47.900;8.146;2023-09-07T14:43:27;30.40;99.90
36594;DHT22;22603;47.900;8.146;2023-09-07T14:46:15;30.30;99.90
36594;DHT22;22603;47.900;8.146;2023-09-07T14:49:02;30.40;99.90
36594;DHT22;22603;47.900;8.146;2023-09-07T14:51:48;30.20;99.90
36594;DHT22;22603;47.900;8.146;2023-09-07T14:54:35;30.30;99.90
36594;DHT22;22603;47.900;8.146;2023-09-07T14:57:21;30.30;99.90
36594;DHT22;22603;47.900;8.146;2023-09-07T15:00:10;30.20;99.90
36594;DHT22;22603;47.900;8.146;2023-09-07T15:02:58;29.90;99.90
36594;DHT22;22603;47.900;8.146;2023-09-07T15:05:44;29.90;99.90
36594;DHT22;22603;47.900;8.146;2023-09-07T15:08:31;29.90;99.90
36594;DHT22;22603;47.900;8.146;2023-09-07T15:11:20;29.80;99.90
36594;DHT22;22603;47.900;8.146;2023-09-07T15:14:07;29.70;99.90
36594;DHT22;22603;47.900;8.146;2023-09-07T15:16:55;29.60;99.90
36594;DHT22;22603;47.900;8.146;2023-09-07T15:19:42;29.70;99.90
36594;DHT22;22603;47.900;8.146;2023-09-07T15:22:29;29.50;99.90
36594;DHT22;22603;47.900;8.146;2023-09-07T15:25:16;29.50;99.90
36594;DHT22;22603;47.900;8.146;2023-09-07T15:28:03;29.40;99.90
36594;DHT22;22603;47.900;8.146;2023-09-07T15:30:54;29.40;99.90
36594;DHT22;22603;47.900;8.146;2023-09-07T15:33:42;29.30;99.90
36594;DHT22;22603;47.900;8.146;2023-09-07T15:36:28;29.10;99.90
36594;DHT22;22603;47.900;8.146;2023-09-07T15:39:15;29.10;99.90
36594;DHT22;22603;47.900;8.146;2023-09-07T15:42:02;29.10;99.90
36594;DHT22;22603;47.900;8.146;2023-09-07T15:44:48;29.10;99.90
36594;DHT22;22603;47.900;8.146;2023-09-07T15:47:35;28.90;99.90
36594;DHT22;22603;47.900;8.146;2023-09-07T15:50:24;28.80;99.90
36594;DHT22;22603;47.900;8.146;2023-09-07T15:53:11;28.60;99.90
36594;DHT22;22603;47.900;8.146;2023-09-07T15:55:57;28.60;99.90
36594;DHT22;22603;47.900;8.146;2023-09-07T15:58:44;28.40;99.90
36594;DHT22;22603;47.900;8.146;2023-09-07T16:01:31;28.30;99.90
36594;DHT22;22603;47.900;8.146;2023-09-07T16:04:18;28.30;99.90
36594;DHT22;22603;47.900;8.146;2023-09-07T16:07:06;28.20;99.90
36594;DHT22;22603;47.900;8.146;2023-09-07T16:09:53;28.20;99.90
36594;DHT22;22603;47.900;8.146;2023-09-07T16:12:39;28.10;99.90
36594;DHT22;22603;47.900;8.146;2023-09-07T16:15:26;28.10;99.90
36594;DHT22;22603;47.900;8.146;2023-09-07T16:18:13;28.00;99.90
36594;DHT22;22603;47.900;8.146;2023-09-07T16:21:01;27.90;99.90
36594;DHT22;22603;47.900;8.146;2023-09-07T16:23:53;27.80;99.90
36594;DHT22;22603;47.900;8.146;2023-09-07T16:26:39;27.70;99.90
36594;DHT22;22603;47.900;8.146;2023-09-07T16:29:26;27.50;99.90
36594;DHT22;22603;47.900;8.146;2023-09-07T16:32:13;27.30;99.90
36594;DHT22;22603;47.900;8.146;2023-09-07T16:35:02;27.20;99.90
36594;DHT22;22603;47.900;8.146;2023-09-07T16:37:48;27.10;99.90
36594;DHT22;22603;47.900;8.146;2023-09-07T16:40:39;27.00;99.90
36594;DHT22;22603;47.900;8.146;2023-09-07T16:43:25;26.80;99.90
36594;DHT22;22603;47.900;8.146;2023-09-07T16:46:12;26.70;99.90
36594;DHT22;22603;47.900;8.146;2023-09-07T16:48:59;26.60;99.90
36594;DHT22;22603;47.900;8.146;2023-09-07T16:51:46;26.50;99.90
36594;DHT22;22603;47.900;8.146;2023-09-07T16:54:33;26.40;99.90
36594;DHT22;22603;47.900;8.146;2023-09-07T16:57:22;26.20;99.90
36594;DHT22;22603;47.900;8.146;2023-09-07T17:00:10;26.00;99.90
36594;DHT22;22603;47.900;8.146;2023-09-07T17:02:57;25.80;99.90
36594;DHT22;22603;47.900;8.146;2023-09-07T17:05:44;25.60;99.90
36594;DHT22;22603;47.900;8.146;2023-09-07T17:08:33;25.50;99.90
36594;DHT22;22603;47.900;8.146;2023-09-07T17:11:20;25.40;99.90
36594;DHT22;22603;47.900;8.146;2023-09-07T17:14:08;25.20;99.90
36594;DHT22;22603;47.900;8.146;2023-09-07T17:16:55;25.10;99.90
36594;DHT22;22603;47.900;8.146;2023-09-07T17:19:42;24.90;99.90
36594;DHT22;22603;47.900;8.146;2023-09-07T17:22:29;24.90;99.90
36594;DHT22;22603;47.900;8.146;2023-09-07T17:25:17;24.70;99.90
36594;DHT22;22603;47.900;8.146;2023-09-07T17:28:04;24.60;99.90
36594;DHT22;22603;47.900;8.146;2023-09-07T17:30:52;24.40;99.90
36594;DHT22;22603;47.900;8.146;2023-09-07T17:33:39;24.30;99.90
36594;DHT22;22603;47.900;8.146;2023-09-07T17:36:26;24.30;99.90
36594;DHT22;22603;47.900;8.146;2023-09-07T17:39:13;24.20;99.90
36594;DHT22;22603;47.900;8.146;2023-09-07T17:42:00;24.00;99.90
36594;DHT22;22603;47.900;8.146;2023-09-07T17:44:49;23.90;99.90